createdAt,value
2022-08-14T00:00:59.530Z,15.07
2022-08-14T00:02:04.398Z,15.01
2022-08-14T00:03:00.779Z,15.04
2022-08-14T00:03:59.559Z,15.08
2022-08-14T00:04:59.910Z,15.05
2022-08-14T00:06:29.185Z,15.02
2022-08-14T00:07:01.804Z,15.1
2022-08-14T00:08:00.425Z,15.07
2022-08-14T00:09:04.292Z,15.04
2022-08-14T00:10:55.098Z,15.01
2022-08-14T00:11:10.973Z,15.02
2022-08-14T00:12:32.968Z,14.95
2022-08-14T00:13:15.991Z,15.02
2022-08-14T00:14:17.368Z,14.97
2022-08-14T00:15:10.576Z,14.97
2022-08-14T00:16:44.930Z,14.97
2022-08-14T00:17:11.501Z,14.98
2022-08-14T00:18:30.277Z,14.87
2022-08-14T00:19:34.315Z,15.01
2022-08-14T00:20:43.774Z,14.93
2022-08-14T00:21:33.595Z,14.93
2022-08-14T00:23:17.670Z,14.82
2022-08-14T00:23:30.367Z,14.97
2022-08-14T00:24:37.436Z,14.9
2022-08-14T00:26:06.339Z,14.79
2022-08-14T00:26:32.810Z,14.89
2022-08-14T00:27:40.181Z,14.86
2022-08-14T00:28:37.969Z,14.85
2022-08-14T00:29:39.944Z,14.85
2022-08-14T00:30:31.933Z,14.79
2022-08-14T00:31:58.382Z,14.89
2022-08-14T00:33:18.361Z,14.86
2022-08-14T00:34:51.066Z,14.8
2022-08-14T00:35:05.897Z,14.86
2022-08-14T00:36:51.695Z,14.71
2022-08-14T00:37:08.056Z,14.83
2022-08-14T00:38:12.702Z,14.8
2022-08-14T00:39:12.156Z,14.74
2022-08-14T00:40:35.859Z,14.71
2022-08-14T00:41:10.819Z,14.7
2022-08-14T00:42:10.275Z,14.63
2022-08-14T00:43:08.519Z,14.69
2022-08-14T00:44:10.504Z,14.74
2022-08-14T00:45:08.522Z,14.71
2022-08-14T00:46:30.209Z,14.69
2022-08-14T00:47:08.247Z,14.75
2022-08-14T00:48:07.901Z,14.71
2022-08-14T00:49:07.889Z,14.67
2022-08-14T00:50:08.732Z,14.64
2022-08-14T00:51:08.002Z,14.69
2022-08-14T00:52:09.069Z,14.69
2022-08-14T00:53:12.939Z,14.66
2022-08-14T00:54:21.395Z,14.7
2022-08-14T00:55:07.405Z,14.66
2022-08-14T00:56:17.977Z,14.7
2022-08-14T00:57:07.569Z,14.66
2022-08-14T00:58:09.101Z,14.59
2022-08-14T00:59:08.121Z,14.66
2022-08-14T01:00:07.796Z,14.69
2022-08-14T01:01:09.395Z,14.6
2022-08-14T01:02:11.832Z,14.71
2022-08-14T01:03:07.771Z,14.64
2022-08-14T01:04:52.585Z,14.63
2022-08-14T01:05:08.182Z,14.66
2022-08-14T01:06:11.629Z,14.6
2022-08-14T01:07:11.791Z,14.66
2022-08-14T01:08:50.879Z,14.61
2022-08-14T01:09:10.255Z,14.63
2022-08-14T01:10:08.565Z,14.63
2022-08-14T01:11:08.304Z,14.63
2022-08-14T01:12:09.926Z,14.53
2022-08-14T01:13:08.267Z,14.61
2022-08-14T01:14:31.021Z,14.61
2022-08-14T01:15:14.680Z,14.56
2022-08-14T01:16:09.752Z,14.59
2022-08-14T01:17:11.303Z,14.6
2022-08-14T01:18:11.229Z,14.51
2022-08-14T01:19:08.245Z,14.46
2022-08-14T01:20:29.767Z,14.57
2022-08-14T01:21:09.494Z,14.51
2022-08-14T01:22:18.707Z,14.49
2022-08-14T01:23:09.468Z,14.61
2022-08-14T01:24:23.107Z,14.59
2022-08-14T01:25:10.005Z,14.51
2022-08-14T01:26:14.051Z,14.51
2022-08-14T01:27:11.893Z,14.61
2022-08-14T01:28:34.595Z,14.48
2022-08-14T01:29:10.350Z,14.48
2022-08-14T01:30:09.770Z,14.46
2022-08-14T01:31:10.832Z,14.51
2022-08-14T01:32:17.830Z,14.49
2022-08-14T01:33:12.745Z,14.53
2022-08-14T01:36:07.513Z,14.49
2022-08-14T01:36:38.065Z,14.51
2022-08-14T01:37:33.968Z,14.57
2022-08-14T01:38:32.614Z,14.45
2022-08-14T01:39:39.926Z,14.48
2022-08-14T01:40:44.533Z,14.51
2022-08-14T01:41:34.683Z,14.48
2022-08-14T01:42:40.512Z,14.51
2022-08-14T01:43:38.293Z,14.63
2022-08-14T01:44:37.245Z,14.49
2022-08-14T01:45:42.466Z,14.59
2022-08-14T01:46:41.318Z,14.61
2022-08-14T01:47:39.799Z,14.57
2022-08-14T01:48:33.030Z,14.59
2022-08-14T01:50:00.092Z,14.61
2022-08-14T01:50:32.817Z,14.57
2022-08-14T01:51:32.044Z,14.71
2022-08-14T01:53:03.854Z,14.7
2022-08-14T01:53:38.398Z,14.67
2022-08-14T01:54:45.372Z,14.66
2022-08-14T01:55:33.600Z,14.69
2022-08-14T01:56:39.931Z,14.7
2022-08-14T01:58:28.504Z,14.63
2022-08-14T01:59:00.014Z,14.71
2022-08-14T01:59:46.174Z,14.69
2022-08-14T02:00:40.959Z,14.71
2022-08-14T02:01:51.120Z,14.67
2022-08-14T02:02:42.371Z,14.67
2022-08-14T02:03:42.551Z,14.64
2022-08-14T02:05:01.830Z,14.69
2022-08-14T02:05:42.804Z,14.64
2022-08-14T02:06:38.730Z,14.74
2022-08-14T02:08:11.701Z,14.66
2022-08-14T02:08:59.932Z,14.74
2022-08-14T02:10:00.476Z,14.8
2022-08-14T02:11:00.491Z,14.82
2022-08-14T02:12:00.028Z,14.79
2022-08-14T02:13:04.116Z,14.86
2022-08-14T02:13:58.487Z,14.87
2022-08-14T02:15:06.354Z,14.83
2022-08-14T02:15:59.050Z,14.9
2022-08-14T02:16:59.775Z,14.82
2022-08-14T02:17:58.499Z,14.82
2022-08-14T02:18:58.521Z,14.98
2022-08-14T02:19:58.916Z,14.89
2022-08-14T02:21:01.765Z,14.93
2022-08-14T02:22:05.003Z,14.83
2022-08-14T02:23:03.105Z,14.94
2022-08-14T02:25:00.863Z,14.89
2022-08-14T02:26:00.008Z,14.9
2022-08-14T02:29:03.336Z,14.85
2022-08-14T02:29:15.836Z,14.89
2022-08-14T02:30:19.001Z,14.83
2022-08-14T02:31:19.564Z,14.8
2022-08-14T02:32:46.931Z,14.71
2022-08-14T02:33:16.600Z,14.71
2022-08-14T02:34:29.874Z,14.7
2022-08-14T02:35:17.484Z,14.69
2022-08-14T02:37:13.176Z,14.79
2022-08-14T02:37:49.921Z,14.74
2022-08-14T02:38:37.462Z,14.75
2022-08-14T02:39:30.184Z,14.61
2022-08-14T02:40:38.365Z,14.79
2022-08-14T02:41:41.028Z,14.69
2022-08-14T02:42:41.738Z,14.69
2022-08-14T02:43:46.083Z,14.77
2022-08-14T02:44:41.934Z,14.86
2022-08-14T02:45:33.066Z,14.86
2022-08-14T02:46:43.504Z,14.87
2022-08-14T02:47:28.452Z,14.86
2022-08-14T02:49:12.160Z,14.93
2022-08-14T02:49:38.854Z,15
2022-08-14T02:50:35.890Z,14.95
2022-08-14T02:51:36.461Z,14.93
2022-08-14T02:53:09.701Z,14.94
2022-08-14T02:53:37.419Z,14.83
2022-08-14T02:54:31.268Z,14.97
2022-08-14T02:55:31.920Z,14.85
2022-08-14T02:57:43.115Z,14.82
2022-08-14T02:58:10.610Z,14.89
2022-08-14T02:59:10.270Z,14.83
2022-08-14T03:00:12.551Z,14.83
2022-08-14T03:01:11.610Z,14.85
2022-08-14T03:02:49.247Z,14.86
2022-08-14T03:03:14.200Z,14.75
2022-08-14T03:04:15.144Z,14.75
2022-08-14T03:05:15.620Z,14.77
2022-08-14T03:06:14.107Z,14.77
2022-08-14T03:07:19.437Z,14.71
2022-08-14T03:08:18.913Z,14.67
2022-08-14T03:09:14.325Z,14.63
2022-08-14T03:10:36.477Z,14.69
2022-08-14T03:11:14.186Z,14.67
2022-08-14T03:12:17.864Z,14.7
2022-08-14T03:13:24.332Z,14.7
2022-08-14T03:14:17.949Z,14.63
2022-08-14T03:15:23.309Z,14.61
2022-08-14T03:16:36.426Z,14.6
2022-08-14T03:17:15.693Z,14.63
2022-08-14T03:18:20.845Z,14.59
2022-08-14T03:19:16.373Z,14.57
2022-08-14T03:20:16.636Z,14.56
2022-08-14T03:21:13.730Z,14.61
2022-08-14T03:22:23.733Z,14.52
2022-08-14T03:23:14.936Z,14.48
2022-08-14T03:24:27.715Z,14.49
2022-08-14T03:25:15.145Z,14.51
2022-08-14T03:26:32.847Z,14.57
2022-08-14T03:27:14.563Z,14.46
2022-08-14T03:28:36.598Z,14.48
2022-08-14T03:29:18.653Z,14.46
2022-08-14T03:30:37.233Z,14.51
2022-08-14T03:31:17.737Z,14.53
2022-08-14T03:32:16.770Z,14.52
2022-08-14T03:49:32.471Z,14.33
2022-08-14T03:50:35.681Z,14.28
2022-08-14T03:51:27.640Z,14.28
2022-08-14T03:53:00.420Z,14.33
2022-08-14T03:53:28.475Z,14.27
2022-08-14T03:54:26.466Z,14.27
2022-08-14T03:55:26.825Z,14.3
2022-08-14T03:56:26.761Z,14.23
2022-08-14T03:57:27.901Z,14.19
2022-08-14T03:58:39.218Z,14.27
2022-08-14T03:59:30.699Z,14.2
2022-08-14T04:00:49.676Z,14.09
2022-08-14T04:01:38.969Z,14.16
2022-08-14T04:02:55.333Z,14.2
2022-08-14T04:03:31.418Z,14.16
2022-08-14T04:04:28.038Z,14.16
2022-08-14T04:05:27.506Z,14.19
2022-08-14T04:06:34.612Z,14.2
2022-08-14T04:07:27.078Z,14.27
2022-08-14T04:08:35.537Z,14.28
2022-08-14T04:09:31.219Z,14.24
2022-08-14T04:10:36.208Z,14.31
2022-08-14T04:11:26.354Z,14.3
2022-08-14T04:12:31.248Z,14.26
2022-08-14T04:13:31.390Z,14.42
2022-08-14T04:14:28.130Z,14.42
2022-08-14T04:15:28.408Z,14.36
2022-08-14T04:16:33.570Z,14.38
2022-08-14T04:17:27.821Z,14.42
2022-08-14T04:18:26.078Z,14.38
2022-08-14T04:19:28.029Z,14.41
2022-08-14T04:20:30.520Z,14.49
2022-08-14T04:21:26.105Z,14.52
2022-08-14T04:22:26.794Z,14.51
2022-08-14T04:23:35.190Z,14.46
2022-08-14T04:24:30.603Z,14.49
2022-08-14T04:25:27.010Z,14.52
2022-08-14T04:26:46.804Z,14.45
2022-08-14T04:27:26.194Z,14.59
2022-08-14T04:29:19.088Z,14.6
2022-08-14T04:29:35.024Z,14.63
2022-08-14T04:30:38.925Z,14.61
2022-08-14T04:33:17.044Z,14.61
2022-08-14T04:33:36.742Z,14.63
2022-08-14T04:34:32.625Z,14.66
2022-08-14T04:36:00.648Z,14.61
2022-08-14T04:36:31.882Z,14.61
2022-08-14T04:37:33.334Z,14.67
2022-08-14T04:38:42.067Z,14.66
2022-08-14T04:39:34.258Z,14.64
2022-08-14T04:40:32.836Z,14.67
2022-08-14T04:41:35.235Z,14.66
2022-08-14T04:42:31.578Z,14.69
2022-08-14T04:43:43.186Z,14.71
2022-08-14T04:44:41.829Z,14.69
2022-08-14T04:45:34.699Z,14.71
2022-08-14T04:47:02.013Z,14.74
2022-08-14T04:47:35.457Z,14.75
2022-08-14T04:48:55.371Z,14.66
2022-08-14T04:49:32.042Z,14.74
2022-08-14T04:50:56.527Z,14.82
2022-08-14T04:51:37.383Z,14.75
2022-08-14T04:52:33.339Z,14.82
2022-08-14T04:53:45.622Z,14.85
2022-08-14T04:54:32.258Z,14.85
2022-08-14T04:55:33.294Z,14.82
2022-08-14T04:56:38.385Z,14.83
2022-08-14T04:57:34.976Z,14.86
2022-08-14T04:58:36.869Z,14.9
2022-08-14T04:59:32.127Z,14.95
2022-08-14T05:00:33.467Z,15
2022-08-14T05:01:44.873Z,14.95
2022-08-14T05:02:36.834Z,15.01
2022-08-14T05:03:33.231Z,15.1
2022-08-14T05:04:31.921Z,15.07
2022-08-14T05:05:36.483Z,15.1
2022-08-14T05:06:43.173Z,15.13
2022-08-14T05:08:03.956Z,15.23
2022-08-14T05:09:04.869Z,15.37
2022-08-14T05:10:16.564Z,15.37
2022-08-14T05:11:05.306Z,15.45
2022-08-14T05:13:18.064Z,15.58
2022-08-14T05:14:57.157Z,15.59
2022-08-14T05:15:12.361Z,15.59
2022-08-14T05:16:11.417Z,15.73
2022-08-14T05:17:12.170Z,15.8
2022-08-14T05:19:25.149Z,15.89
2022-08-14T05:22:19.005Z,15.92
2022-08-14T05:22:33.077Z,15.93
2022-08-14T05:23:32.817Z,16
2022-08-14T05:24:34.469Z,15.96
2022-08-14T05:25:36.866Z,15.99
2022-08-14T05:26:33.543Z,16
2022-08-14T05:27:36.052Z,16
2022-08-14T05:28:34.938Z,16.04
2022-08-14T05:29:32.987Z,15.95
2022-08-14T05:30:33.027Z,16.07
2022-08-14T05:31:44.428Z,16.1
2022-08-14T05:32:34.185Z,16.1
2022-08-14T05:33:34.977Z,16.18
2022-08-14T05:34:35.448Z,16.11
2022-08-14T05:35:34.842Z,16.25
2022-08-14T05:36:38.504Z,16.14
2022-08-14T05:37:34.794Z,16.21
2022-08-14T05:38:37.596Z,16.26
2022-08-14T05:39:33.844Z,16.27
2022-08-14T05:40:32.955Z,16.32
2022-08-14T05:41:58.120Z,16.34
2022-08-14T05:42:38.611Z,16.32
2022-08-14T05:43:46.359Z,16.27
2022-08-14T05:44:36.118Z,16.3
2022-08-14T05:45:33.488Z,16.44
2022-08-14T05:46:33.129Z,16.4
2022-08-14T05:47:42.983Z,16.45
2022-08-14T05:48:48.492Z,16.51
2022-08-14T05:49:40.628Z,16.63
2022-08-14T05:50:35.162Z,16.62
2022-08-14T05:51:35.327Z,16.69
2022-08-14T05:52:43.982Z,16.74
2022-08-14T05:53:42.083Z,16.74
2022-08-14T05:54:40.279Z,16.85
2022-08-14T05:55:34.163Z,16.87
2022-08-14T05:56:37.004Z,16.95
2022-08-14T05:57:34.024Z,17.02
2022-08-14T05:58:45.744Z,17.03
2022-08-14T05:59:42.341Z,16.99
2022-08-14T06:00:41.917Z,17.05
2022-08-14T06:01:37.587Z,17.05
2022-08-14T06:02:33.448Z,17.07
2022-08-14T06:03:33.792Z,17.03
2022-08-14T06:04:34.344Z,17.2
2022-08-14T06:05:34.056Z,17.24
2022-08-14T06:06:40.467Z,17.38
2022-08-14T06:07:33.395Z,17.46
2022-08-14T06:08:43.930Z,17.47
2022-08-14T06:09:43.024Z,17.69
2022-08-14T06:10:35.907Z,17.68
2022-08-14T06:11:36.075Z,17.77
2022-08-14T06:13:08.446Z,17.9
2022-08-14T06:13:48.036Z,17.94
2022-08-14T06:14:33.354Z,18.01
2022-08-14T06:15:35.568Z,18.05
2022-08-14T06:16:35.452Z,18.06
2022-08-14T06:17:55.797Z,18.17
2022-08-14T06:18:36.504Z,18.17
2022-08-14T06:19:34.566Z,18.34
2022-08-14T06:20:36.536Z,18.24
2022-08-14T06:21:35.001Z,18.32
2022-08-14T06:22:33.569Z,18.38
2022-08-14T06:23:33.051Z,18.51
2022-08-14T06:24:46.366Z,18.57
2022-08-14T06:25:34.197Z,18.54
2022-08-14T06:26:36.782Z,18.68
2022-08-14T06:27:39.602Z,18.63
2022-08-14T06:28:33.543Z,18.72
2022-08-14T06:29:38.014Z,18.71
2022-08-14T06:30:50.516Z,18.81
2022-08-14T06:31:33.080Z,18.86
2022-08-14T06:32:55.904Z,18.96
2022-08-14T06:35:16.024Z,18.97
2022-08-14T06:35:28.826Z,18.99
2022-08-14T06:36:26.132Z,18.96
2022-08-14T06:37:26.632Z,19.06
2022-08-14T06:38:27.875Z,19.09
2022-08-14T06:39:46.432Z,19.13
2022-08-14T06:40:36.423Z,19.12
2022-08-14T06:42:04.077Z,19.24
2022-08-14T06:42:43.560Z,19.24
2022-08-14T06:43:48.196Z,19.31
2022-08-14T06:44:41.140Z,19.42
2022-08-14T06:45:48.300Z,19.47
2022-08-14T06:46:42.669Z,19.47
2022-08-14T06:47:48.669Z,19.53
2022-08-14T06:48:46.632Z,19.6
2022-08-14T06:49:56.104Z,19.61
2022-08-14T06:50:41.363Z,19.65
2022-08-14T06:51:52.111Z,19.92
2022-08-14T06:52:52.319Z,20.23
2022-08-14T06:53:41.249Z,20.72
2022-08-14T06:54:41.985Z,21.49
2022-08-14T06:56:01.215Z,22.24
2022-08-14T06:56:57.133Z,22.99
2022-08-14T06:57:44.114Z,23.64
2022-08-14T06:58:42.844Z,24.4
2022-08-14T06:59:42.761Z,25.23
2022-08-14T07:00:41.851Z,25.82
2022-08-14T07:01:41.786Z,26.54
2022-08-14T07:02:48.456Z,27.28
2022-08-14T07:03:44.898Z,27.66
2022-08-14T07:04:41.541Z,28.17
2022-08-14T07:05:57.805Z,28.7
2022-08-14T07:06:54.709Z,28.92
2022-08-14T07:07:45.141Z,29.29
2022-08-14T07:08:42.333Z,29.48
2022-08-14T07:09:53.326Z,29.54
2022-08-14T07:10:41.463Z,29.73
2022-08-14T07:11:42.634Z,29.91
2022-08-14T07:13:07.140Z,30.25
2022-08-14T07:13:42.245Z,30.35
2022-08-14T07:14:43.374Z,30.73
2022-08-14T07:15:44.929Z,30.94
2022-08-14T07:16:41.948Z,31.18
2022-08-14T07:17:42.659Z,31.53
2022-08-14T07:18:42.992Z,31.82
2022-08-14T07:19:42.203Z,32.03
2022-08-14T07:20:42.177Z,32.39
2022-08-14T07:21:41.479Z,32.54
2022-08-14T07:23:11.295Z,32.9
2022-08-14T07:23:53.933Z,33.01
2022-08-14T07:24:40.982Z,33.06
2022-08-14T07:25:44.416Z,33.18
2022-08-14T07:26:43.502Z,33.18
2022-08-14T07:27:45.532Z,33.17
2022-08-14T07:28:47.662Z,33.23
2022-08-14T07:29:44.597Z,33.24
2022-08-14T07:30:53.994Z,33.41
2022-08-14T07:31:43.879Z,33.56
2022-08-14T07:32:41.066Z,33.78
2022-08-14T07:33:45.711Z,34.08
2022-08-14T07:34:46.192Z,34.08
2022-08-14T07:36:01.919Z,34.45
2022-08-14T07:37:01.432Z,34.59
2022-08-14T07:37:41.933Z,34.67
2022-08-14T07:38:43.292Z,34.71
2022-08-14T07:39:46.475Z,34.67
2022-08-14T07:40:47.617Z,34.71
2022-08-14T07:41:44.793Z,34.32
2022-08-14T07:42:43.645Z,34.14
2022-08-14T07:43:42.976Z,34.08
2022-08-14T07:44:53.306Z,34.11
2022-08-14T07:45:42.743Z,34.11
2022-08-14T07:46:44.816Z,34.12
2022-08-14T07:47:44.093Z,34
2022-08-14T07:48:43.695Z,33.84
2022-08-14T07:49:43.478Z,33.31
2022-08-14T07:50:41.909Z,32.65
2022-08-14T07:51:41.896Z,32.12
2022-08-14T07:52:44.877Z,31.68
2022-08-14T07:53:45.170Z,31.31
2022-08-14T07:54:41.126Z,31.03
2022-08-14T07:55:43.966Z,30.67
2022-08-14T07:56:59.683Z,30.03
2022-08-14T07:57:54.395Z,29.75
2022-08-14T07:59:00.670Z,29.42
2022-08-14T07:59:53.980Z,29.06
2022-08-14T08:00:59.579Z,28.88
2022-08-14T08:01:54.196Z,28.67
2022-08-14T08:03:00.188Z,28.45
2022-08-14T08:04:03.310Z,28.3
2022-08-14T08:04:53.243Z,28.09
2022-08-14T08:05:49.907Z,27.79
2022-08-14T08:06:54.091Z,27.48
2022-08-14T08:07:51.751Z,27.15
2022-08-14T08:09:05.591Z,26.75
2022-08-14T08:09:55.207Z,26.78
2022-08-14T08:11:14.776Z,26.74
2022-08-14T08:11:59.618Z,26.75
2022-08-14T08:12:51.091Z,26.79
2022-08-14T08:13:58.896Z,26.86
2022-08-14T08:15:09.959Z,26.89
2022-08-14T08:15:51.730Z,26.86
2022-08-14T08:16:53.808Z,26.87
2022-08-14T08:18:06.490Z,27
2022-08-14T08:18:53.079Z,26.97
2022-08-14T08:19:54.011Z,26.84
2022-08-14T08:21:01.850Z,26.61
2022-08-14T08:21:49.988Z,26.54
2022-08-14T08:23:00.338Z,26.53
2022-08-14T08:23:56.380Z,26.49
2022-08-14T08:24:52.990Z,26.49
2022-08-14T08:25:51.359Z,26.6
2022-08-14T08:26:53.114Z,26.63
2022-08-14T08:27:51.336Z,26.45
2022-08-14T08:28:50.310Z,26.2
2022-08-14T08:29:57.135Z,26.16
2022-08-14T08:30:54.865Z,26.15
2022-08-14T08:31:56.518Z,26.26
2022-08-14T08:32:54.878Z,26.22
2022-08-14T08:33:53.997Z,26.16
2022-08-14T08:34:51.678Z,25.99
2022-08-14T08:35:55.891Z,25.84
2022-08-14T08:36:51.426Z,25.64
2022-08-14T08:38:14.242Z,25.51
2022-08-14T08:40:08.201Z,25.29
2022-08-14T08:40:42.011Z,25.27
2022-08-14T08:41:37.577Z,25.27
2022-08-14T08:43:01.450Z,25.59
2022-08-14T08:43:38.178Z,25.54
2022-08-14T08:44:40.323Z,25.54
2022-08-14T08:45:39.828Z,25.75
2022-08-14T08:46:41.337Z,26.06
2022-08-14T08:47:36.954Z,26.3
2022-08-14T08:49:48.917Z,26.63
2022-08-14T08:51:42.956Z,26.79
2022-08-14T08:52:37.065Z,26.87
2022-08-14T08:53:37.110Z,26.96
2022-08-14T08:54:36.965Z,27.13
2022-08-14T08:55:39.389Z,27.26
2022-08-14T08:56:45.280Z,27.45
2022-08-14T08:57:36.909Z,27.57
2022-08-14T08:58:40.425Z,27.71
2022-08-14T08:59:44.288Z,28.02
2022-08-14T09:00:38.303Z,28.05
2022-08-14T09:01:38.315Z,28.21
2022-08-14T09:02:38.187Z,28.3
2022-08-14T09:03:46.110Z,28.46
2022-08-14T09:04:37.234Z,28.35
2022-08-14T09:05:38.575Z,28.31
2022-08-14T09:07:13.588Z,27.99
2022-08-14T09:07:38.337Z,27.99
2022-08-14T09:08:39.436Z,27.89
2022-08-14T09:10:01.747Z,27.76
2022-08-14T09:10:38.629Z,27.66
2022-08-14T09:11:40.986Z,27.49
2022-08-14T09:12:37.965Z,27.52
2022-08-14T09:13:37.935Z,27.46
2022-08-14T09:14:39.907Z,27.53
2022-08-14T09:15:47.816Z,27.68
2022-08-14T09:16:37.793Z,27.71
2022-08-14T09:17:38.347Z,27.79
2022-08-14T09:18:37.054Z,27.83
2022-08-14T09:19:39.039Z,27.86
2022-08-14T09:20:39.480Z,27.83
2022-08-14T09:21:37.008Z,27.81
2022-08-14T09:22:50.087Z,27.79
2022-08-14T09:24:35.258Z,27.72
2022-08-14T09:24:51.533Z,27.69
2022-08-14T09:26:23.018Z,27.79
2022-08-14T09:26:54.670Z,27.84
2022-08-14T09:27:52.136Z,27.75
2022-08-14T09:28:54.604Z,27.89
2022-08-14T09:29:59.454Z,28.08
2022-08-14T09:30:51.539Z,28.05
2022-08-14T09:32:00.118Z,28.09
2022-08-14T09:33:24.803Z,28.11
2022-08-14T09:34:32.735Z,28.01
2022-08-14T09:35:15.345Z,27.83
2022-08-14T09:36:15.701Z,27.83
2022-08-14T09:37:15.344Z,27.87
2022-08-14T09:38:30.652Z,27.8
2022-08-14T09:39:28.439Z,27.81
2022-08-14T09:40:26.281Z,27.81
2022-08-14T09:41:17.987Z,27.84
2022-08-14T09:42:37.055Z,27.86
2022-08-14T09:43:15.367Z,27.69
2022-08-14T09:44:23.287Z,27.91
2022-08-14T09:45:16.850Z,28.02
2022-08-14T09:46:27.892Z,28.02
2022-08-14T09:47:19.397Z,28.05
2022-08-14T09:48:19.319Z,28.18
2022-08-14T09:49:21.660Z,28.18
2022-08-14T09:50:17.373Z,28.16
2022-08-14T09:51:18.676Z,28.16
2022-08-14T09:52:38.604Z,28.31
2022-08-14T09:53:23.258Z,28.33
2022-08-14T09:54:34.260Z,28.49
2022-08-14T09:55:45.820Z,28.7
2022-08-14T09:56:35.768Z,28.64
2022-08-14T09:57:35.814Z,28.7
2022-08-14T09:58:34.872Z,28.55
2022-08-14T09:59:41.117Z,28.54
2022-08-14T10:00:35.655Z,28.33
2022-08-14T10:01:38.070Z,28.23
2022-08-14T10:02:36.914Z,28.27
2022-08-14T10:03:37.691Z,28.33
2022-08-14T10:04:50.090Z,28.46
2022-08-14T10:05:37.976Z,28.55
2022-08-14T10:06:34.665Z,28.61
2022-08-14T10:07:34.547Z,28.45
2022-08-14T10:08:34.551Z,28.24
2022-08-14T10:09:41.809Z,28.05
2022-08-14T10:10:40.082Z,27.93
2022-08-14T10:11:41.041Z,27.75
2022-08-14T10:12:39.068Z,27.52
2022-08-14T10:13:55.670Z,27.33
2022-08-14T10:14:40.175Z,27.28
2022-08-14T10:15:34.866Z,27.15
2022-08-14T10:16:40.779Z,26.96
2022-08-14T10:17:44.005Z,26.87
2022-08-14T10:18:36.788Z,26.76
2022-08-14T10:19:40.144Z,26.68
2022-08-14T10:20:49.933Z,26.54
2022-08-14T10:23:15.710Z,26.24
2022-08-14T10:23:42.755Z,26.35
2022-08-14T10:24:44.493Z,26.31
2022-08-14T10:25:44.914Z,26.35
2022-08-14T10:26:41.975Z,26.41
2022-08-14T10:27:41.568Z,26.38
2022-08-14T10:29:27.554Z,26.37
2022-08-14T10:29:41.360Z,26.53
2022-08-14T10:30:41.375Z,26.52
2022-08-14T10:31:53.072Z,26.49
2022-08-14T10:32:58.094Z,26.47
2022-08-14T10:33:42.304Z,26.53
2022-08-14T10:34:45.727Z,26.6
2022-08-14T10:35:50.326Z,26.78
2022-08-14T10:37:02.299Z,26.64
2022-08-14T10:37:46.735Z,26.71
2022-08-14T10:38:43.484Z,26.63
2022-08-14T10:40:05.402Z,26.69
2022-08-14T10:41:04.790Z,26.64
2022-08-14T10:41:59.013Z,26.74
2022-08-14T10:42:58.444Z,26.78
2022-08-14T10:43:58.322Z,26.79
2022-08-14T10:44:58.623Z,26.79
2022-08-14T10:47:41.727Z,26.68
2022-08-14T10:48:51.722Z,26.79
2022-08-14T10:49:56.787Z,27.06
2022-08-14T10:50:51.610Z,27.3
2022-08-14T10:51:56.330Z,27.33
2022-08-14T10:52:52.994Z,27.28
2022-08-14T10:53:59.112Z,27.09
2022-08-14T10:54:58.514Z,27.11
2022-08-14T10:55:56.368Z,27.19
2022-08-14T10:56:52.580Z,27.23
2022-08-14T10:57:53.296Z,27.21
2022-08-14T10:58:51.934Z,27.16
2022-08-14T10:59:51.490Z,27.04
2022-08-14T11:00:58.704Z,27.08
2022-08-14T11:01:53.531Z,27.16
2022-08-14T11:03:01.160Z,27.31
2022-08-14T11:04:02.247Z,27.55
2022-08-14T11:04:53.718Z,27.74
2022-08-14T11:05:58.284Z,27.87
2022-08-14T11:06:51.797Z,27.99
2022-08-14T11:07:59.681Z,28.14
2022-08-14T11:08:56.500Z,28.27
2022-08-14T11:09:54.414Z,28.21
2022-08-14T11:10:54.970Z,28.28
2022-08-14T11:12:42.466Z,28.18
2022-08-14T11:12:54.277Z,28.17
2022-08-14T11:13:53.855Z,28.06
2022-08-14T11:15:02.974Z,27.81
2022-08-14T11:15:54.762Z,27.74
2022-08-14T11:16:58.103Z,27.66
2022-08-14T11:17:54.149Z,27.62
2022-08-14T11:19:01.935Z,27.42
2022-08-14T11:19:58.790Z,27.59
2022-08-14T11:20:56.202Z,27.55
2022-08-14T11:21:59.950Z,27.55
2022-08-14T11:23:01.303Z,27.76
2022-08-14T11:24:00.315Z,27.94
2022-08-14T11:25:04.061Z,28.36
2022-08-14T11:26:01.639Z,28.57
2022-08-14T11:27:01.815Z,28.83
2022-08-14T11:28:01.977Z,29.03
2022-08-14T11:29:04.920Z,29.26
2022-08-14T11:30:54.702Z,29.42
2022-08-14T11:31:10.159Z,29.54
2022-08-14T11:32:09.782Z,29.52
2022-08-14T11:33:11.575Z,29.35
2022-08-14T11:34:34.885Z,29.06
2022-08-14T11:35:11.650Z,29.08
2022-08-14T11:36:22.541Z,28.91
2022-08-14T11:37:45.961Z,28.72
2022-08-14T11:38:31.464Z,28.65
2022-08-14T11:39:39.533Z,28.79
2022-08-14T11:40:37.342Z,28.94
2022-08-14T11:41:29.666Z,29.06
2022-08-14T11:43:02.484Z,29.3
2022-08-14T11:43:36.190Z,29.21
2022-08-14T11:44:56.594Z,29.1
2022-08-14T11:45:32.307Z,29.01
2022-08-14T11:46:42.320Z,28.94
2022-08-14T11:47:34.904Z,28.86
2022-08-14T11:49:17.237Z,28.67
2022-08-14T11:50:38.387Z,28.48
2022-08-14T11:51:13.871Z,28.48
2022-08-14T11:52:12.126Z,28.38
2022-08-14T11:53:15.714Z,28.24
2022-08-14T11:54:14.499Z,28.17
2022-08-14T11:55:13.910Z,28.05
2022-08-14T11:56:15.487Z,27.83
2022-08-14T11:57:13.349Z,27.81
2022-08-14T11:58:15.740Z,27.68
2022-08-14T11:59:16.129Z,27.52
2022-08-14T12:00:21.510Z,27.43
2022-08-14T12:01:14.235Z,27.31
2022-08-14T12:03:04.615Z,27.28
2022-08-14T12:03:51.822Z,27.37
2022-08-14T12:04:38.937Z,27.43
2022-08-14T12:05:21.155Z,27.57
2022-08-14T12:06:41.725Z,27.65
2022-08-14T12:07:20.184Z,27.65
2022-08-14T12:08:32.679Z,27.71
2022-08-14T12:09:24.391Z,27.69
2022-08-14T12:10:44.661Z,27.68
2022-08-14T12:11:19.582Z,27.75
2022-08-14T12:12:42.196Z,27.69
2022-08-14T12:13:27.227Z,27.69
2022-08-14T12:14:44.350Z,27.64
2022-08-14T12:15:19.289Z,27.66
2022-08-14T12:16:25.392Z,27.76
2022-08-14T12:17:28.680Z,27.98
2022-08-14T12:18:24.667Z,28.17
2022-08-14T12:19:19.907Z,28.17
2022-08-14T12:20:34.137Z,28.2
2022-08-14T12:21:23.628Z,28.12
2022-08-14T12:22:36.336Z,27.98
2022-08-14T12:23:19.511Z,28.01
2022-08-14T12:24:44.427Z,27.83
2022-08-14T12:25:19.573Z,27.91
2022-08-14T12:26:45.506Z,27.99
2022-08-14T12:27:27.512Z,28.05
2022-08-14T12:29:02.749Z,28.11
2022-08-14T12:29:21.351Z,28.18
2022-08-14T12:30:29.217Z,28.14
2022-08-14T12:31:24.970Z,28.03
2022-08-14T12:32:19.753Z,27.96
2022-08-14T12:33:27.053Z,27.8
2022-08-14T12:34:26.191Z,27.87
2022-08-14T12:35:20.895Z,27.89
2022-08-14T12:36:27.779Z,27.98
2022-08-14T12:37:20.273Z,28.09
2022-08-14T12:38:25.532Z,28.2
2022-08-14T12:39:20.887Z,28.36
2022-08-14T12:40:25.494Z,28.49
2022-08-14T12:41:27.970Z,28.58
2022-08-14T12:42:47.425Z,28.79
2022-08-14T12:43:19.876Z,28.79
2022-08-14T12:44:22.613Z,28.88
2022-08-14T12:45:22.274Z,28.97
2022-08-14T12:46:31.901Z,29.02
2022-08-14T12:47:19.851Z,28.98
2022-08-14T12:48:38.054Z,29.06
2022-08-14T12:49:20.855Z,29.08
2022-08-14T12:50:22.695Z,29.03
2022-08-14T12:51:25.087Z,28.95
2022-08-14T12:52:41.682Z,28.94
2022-08-14T12:53:24.610Z,28.9
2022-08-14T12:54:34.769Z,28.8
2022-08-14T12:56:00.810Z,28.7
2022-08-14T12:56:48.228Z,28.55
2022-08-14T12:57:43.460Z,28.49
2022-08-14T12:58:57.201Z,28.33
2022-08-14T12:59:49.388Z,28.26
2022-08-14T13:01:20.415Z,28.2
2022-08-14T13:02:12.916Z,28.06
2022-08-14T13:02:48.604Z,27.96
2022-08-14T13:03:47.202Z,28.05
2022-08-14T13:04:48.581Z,28.05
2022-08-14T13:05:44.262Z,28.03
2022-08-14T13:06:42.832Z,27.96
2022-08-14T13:07:47.903Z,27.99
2022-08-14T13:09:00.185Z,28.17
2022-08-14T13:09:45.958Z,28.12
2022-08-14T13:10:58.470Z,28.03
2022-08-14T13:11:47.144Z,28.03
2022-08-14T13:13:21.085Z,27.83
2022-08-14T13:14:32.029Z,27.8
2022-08-14T13:15:19.364Z,27.81
2022-08-14T13:16:41.038Z,27.71
2022-08-14T13:17:17.901Z,27.8
2022-08-14T13:18:17.866Z,27.81
2022-08-14T13:19:19.970Z,27.83
2022-08-14T13:20:34.854Z,27.81
2022-08-14T13:21:18.947Z,27.9
2022-08-14T13:22:42.660Z,28.09
2022-08-14T13:23:32.966Z,28.17
2022-08-14T13:24:20.137Z,28.26
2022-08-14T13:25:21.041Z,28.33
2022-08-14T13:26:17.391Z,28.41
2022-08-14T13:27:18.675Z,28.57
2022-08-14T13:28:39.956Z,28.79
2022-08-14T13:29:17.584Z,28.76
2022-08-14T13:30:28.384Z,28.9
2022-08-14T13:31:18.512Z,28.97
2022-08-14T13:32:17.398Z,29.01
2022-08-14T13:33:19.887Z,28.98
2022-08-14T13:34:17.221Z,28.97